Terminal Aerodrome Forecast
Issued by NWS Mt. Holly, NJ

Home | Current Version | Previous Version | Text Only | Print | Product List | Glossary On
Versions: 1 2 3 4 5 6 7 8 9 10 11 12 13 14 15
000
FTUS41 KPHI 172337
TAFACY
TAF
KACY 172337Z 1800/1824 21006KT P6SM SCT040 BKN080
     FM180400 VRB03KT P6SM BKN040
      TEMPO 1807/1811 3SM BR SCT005
     FM181700 22008KT P6SM SKC=

USA.gov is the U.S. government's official web portal to all federal, state and local government web resources and services.